sensor_id;sensor_type;location;lat;lon;timestamp;P1;durP1;ratioP1;P2;durP2;ratioP2
3667;SDS011;24099;47.102;15.440;2023-08-17T00:02:11;3.70;;;2.75;;
3667;SDS011;24099;47.102;15.440;2023-08-17T00:04:39;3.90;;;3.33;;
3667;SDS011;24099;47.102;15.440;2023-08-17T00:07:06;9.35;;;3.17;;
3667;SDS011;24099;47.102;15.440;2023-08-17T00:09:35;8.57;;;3.67;;
3667;SDS011;24099;47.102;15.440;2023-08-17T00:12:03;4.28;;;3.53;;
3667;SDS011;24099;47.102;15.440;2023-08-17T00:14:30;5.10;;;3.08;;
3667;SDS011;24099;47.102;15.440;2023-08-17T00:16:58;4.18;;;3.05;;
3667;SDS011;24099;47.102;15.440;2023-08-17T00:19:25;3.60;;;2.80;;
3667;SDS011;24099;47.102;15.440;2023-08-17T00:21:53;4.15;;;3.28;;
3667;SDS011;24099;47.102;15.440;2023-08-17T00:24:21;8.60;;;2.92;;
3667;SDS011;24099;47.102;15.440;2023-08-17T00:26:50;4.85;;;3.08;;
3667;SDS011;24099;47.102;15.440;2023-08-17T00:29:17;5.85;;;3.67;;
3667;SDS011;24099;47.102;15.440;2023-08-17T00:31:45;3.75;;;3.30;;
3667;SDS011;24099;47.102;15.440;2023-08-17T00:34:13;5.40;;;3.40;;
3667;SDS011;24099;47.102;15.440;2023-08-17T00:36:41;4.20;;;3.58;;
3667;SDS011;24099;47.102;15.440;2023-08-17T00:39:08;5.63;;;3.35;;
3667;SDS011;24099;47.102;15.440;2023-08-17T00:41:36;10.02;;;3.65;;
3667;SDS011;24099;47.102;15.440;2023-08-17T00:44:05;4.07;;;3.25;;
3667;SDS011;24099;47.102;15.440;2023-08-17T00:46:33;5.40;;;3.30;;
3667;SDS011;24099;47.102;15.440;2023-08-17T00:49:00;4.03;;;3.20;;
3667;SDS011;24099;47.102;15.440;2023-08-17T00:51:29;5.25;;;2.65;;
3667;SDS011;24099;47.102;15.440;2023-08-17T00:53:58;3.58;;;3.22;;
3667;SDS011;24099;47.102;15.440;2023-08-17T00:56:28;4.68;;;2.95;;
3667;SDS011;24099;47.102;15.440;2023-08-17T00:58:56;8.85;;;3.72;;
3667;SDS011;24099;47.102;15.440;2023-08-17T01:01:25;5.35;;;3.35;;
3667;SDS011;24099;47.102;15.440;2023-08-17T01:03:53;3.70;;;3.05;;
3667;SDS011;24099;47.102;15.440;2023-08-17T01:06:21;4.57;;;3.38;;
3667;SDS011;24099;47.102;15.440;2023-08-17T01:08:49;6.10;;;3.58;;
3667;SDS011;24099;47.102;15.440;2023-08-17T01:11:20;5.18;;;3.30;;
3667;SDS011;24099;47.102;15.440;2023-08-17T01:13:55;4.45;;;3.22;;
3667;SDS011;24099;47.102;15.440;2023-08-17T01:16:31;5.45;;;3.20;;
3667;SDS011;24099;47.102;15.440;2023-08-17T01:21:35;6.93;;;3.25;;
3667;SDS011;24099;47.102;15.440;2023-08-17T01:24:09;10.65;;;3.53;;
3667;SDS011;24099;47.102;15.440;2023-08-17T01:26:38;5.55;;;3.42;;
3667;SDS011;24099;47.102;15.440;2023-08-17T01:29:05;4.75;;;3.55;;
3667;SDS011;24099;47.102;15.440;2023-08-17T01:31:35;4.40;;;3.50;;
3667;SDS011;24099;47.102;15.440;2023-08-17T01:34:10;7.47;;;3.28;;
3667;SDS011;24099;47.102;15.440;2023-08-17T01:36:46;6.20;;;3.40;;
3667;SDS011;24099;47.102;15.440;2023-08-17T01:39:21;5.55;;;3.25;;
3667;SDS011;24099;47.102;15.440;2023-08-17T01:41:53;5.45;;;3.13;;
3667;SDS011;24099;47.102;15.440;2023-08-17T01:44:25;4.13;;;3.33;;
3667;SDS011;24099;47.102;15.440;2023-08-17T01:46:53;3.55;;;2.78;;
3667;SDS011;24099;47.102;15.440;2023-08-17T01:49:22;6.00;;;3.40;;
3667;SDS011;24099;47.102;15.440;2023-08-17T01:51:49;4.00;;;3.05;;
3667;SDS011;24099;47.102;15.440;2023-08-17T01:54:17;6.80;;;2.97;;
3667;SDS011;24099;47.102;15.440;2023-08-17T01:56:46;4.38;;;2.88;;
3667;SDS011;24099;47.102;15.440;2023-08-17T01:59:13;6.93;;;3.10;;
3667;SDS011;24099;47.102;15.440;2023-08-17T02:01:41;7.82;;;3.60;;
3667;SDS011;24099;47.102;15.440;2023-08-17T02:04:08;8.20;;;2.80;;
3667;SDS011;24099;47.102;15.440;2023-08-17T02:06:38;4.00;;;3.00;;
3667;SDS011;24099;47.102;15.440;2023-08-17T02:09:05;4.30;;;3.38;;
3667;SDS011;24099;47.102;15.440;2023-08-17T02:11:34;4.65;;;3.30;;
3667;SDS011;24099;47.102;15.440;2023-08-17T02:14:03;3.55;;;3.03;;
3667;SDS011;24099;47.102;15.440;2023-08-17T02:16:31;5.28;;;3.40;;
3667;SDS011;24099;47.102;15.440;2023-08-17T02:18:59;4.97;;;3.50;;
3667;SDS011;24099;47.102;15.440;2023-08-17T02:21:27;11.13;;;3.20;;
3667;SDS011;24099;47.102;15.440;2023-08-17T02:23:54;7.72;;;3.67;;
3667;SDS011;24099;47.102;15.440;2023-08-17T02:26:22;4.55;;;3.53;;
3667;SDS011;24099;47.102;15.440;2023-08-17T02:28:49;6.55;;;3.55;;
3667;SDS011;24099;47.102;15.440;2023-08-17T02:31:18;6.80;;;3.33;;
3667;SDS011;24099;47.102;15.440;2023-08-17T02:33:46;7.07;;;3.22;;
3667;SDS011;24099;47.102;15.440;2023-08-17T02:36:13;5.13;;;3.45;;
3667;SDS011;24099;47.102;15.440;2023-08-17T02:38:41;9.40;;;4.15;;
3667;SDS011;24099;47.102;15.440;2023-08-17T02:41:08;4.35;;;3.58;;
3667;SDS011;24099;47.102;15.440;2023-08-17T02:43:36;8.27;;;3.50;;
3667;SDS011;24099;47.102;15.440;2023-08-17T02:46:03;7.93;;;3.65;;
3667;SDS011;24099;47.102;15.440;2023-08-17T02:48:33;5.60;;;3.20;;
3667;SDS011;24099;47.102;15.440;2023-08-17T02:51:01;4.47;;;3.35;;
3667;SDS011;24099;47.102;15.440;2023-08-17T02:53:28;6.43;;;3.60;;
3667;SDS011;24099;47.102;15.440;2023-08-17T02:55:56;5.32;;;3.55;;
3667;SDS011;24099;47.102;15.440;2023-08-17T02:58:24;5.82;;;3.53;;
3667;SDS011;24099;47.102;15.440;2023-08-17T03:00:52;7.57;;;3.20;;
3667;SDS011;24099;47.102;15.440;2023-08-17T03:03:20;5.15;;;3.65;;
3667;SDS011;24099;47.102;15.440;2023-08-17T03:05:50;6.07;;;3.90;;
3667;SDS011;24099;47.102;15.440;2023-08-17T03:08:17;5.00;;;3.67;;
3667;SDS011;24099;47.102;15.440;2023-08-17T03:10:45;4.43;;;3.33;;
3667;SDS011;24099;47.102;15.440;2023-08-17T03:13:14;5.78;;;3.60;;
3667;SDS011;24099;47.102;15.440;2023-08-17T03:15:41;7.78;;;3.90;;
3667;SDS011;24099;47.102;15.440;2023-08-17T03:18:09;4.93;;;3.38;;
3667;SDS011;24099;47.102;15.440;2023-08-17T03:20:37;5.00;;;3.10;;
3667;SDS011;24099;47.102;15.440;2023-08-17T03:23:06;7.03;;;3.92;;
3667;SDS011;24099;47.102;15.440;2023-08-17T03:25:34;4.70;;;3.40;;
3667;SDS011;24099;47.102;15.440;2023-08-17T03:28:03;9.50;;;3.85;;
3667;SDS011;24099;47.102;15.440;2023-08-17T03:30:31;5.95;;;3.65;;
3667;SDS011;24099;47.102;15.440;2023-08-17T03:32:59;7.38;;;3.47;;
3667;SDS011;24099;47.102;15.440;2023-08-17T03:35:26;8.45;;;3.47;;
3667;SDS011;24099;47.102;15.440;2023-08-17T03:37:54;7.53;;;3.92;;
3667;SDS011;24099;47.102;15.440;2023-08-17T03:40:23;5.68;;;4.03;;
3667;SDS011;24099;47.102;15.440;2023-08-17T03:42:50;6.68;;;3.55;;
3667;SDS011;24099;47.102;15.440;2023-08-17T03:45:18;6.68;;;3.38;;
3667;SDS011;24099;47.102;15.440;2023-08-17T03:47:48;7.63;;;3.58;;
3667;SDS011;24099;47.102;15.440;2023-08-17T03:50:16;5.55;;;3.58;;
3667;SDS011;24099;47.102;15.440;2023-08-17T03:52:43;7.43;;;3.63;;
3667;SDS011;24099;47.102;15.440;2023-08-17T03:55:11;8.13;;;3.47;;
3667;SDS011;24099;47.102;15.440;2023-08-17T03:57:40;4.97;;;3.38;;
3667;SDS011;24099;47.102;15.440;2023-08-17T04:00:08;5.18;;;3.42;;
3667;SDS011;24099;47.102;15.440;2023-08-17T04:02:39;6.85;;;3.78;;
3667;SDS011;24099;47.102;15.440;2023-08-17T04:05:10;6.55;;;4.10;;
3667;SDS011;24099;47.102;15.440;2023-08-17T04:07:38;7.05;;;3.75;;
3667;SDS011;24099;47.102;15.440;2023-08-17T04:10:06;5.28;;;3.50;;
3667;SDS011;24099;47.102;15.440;2023-08-17T04:12:34;6.57;;;3.53;;
3667;SDS011;24099;47.102;15.440;2023-08-17T04:15:03;4.75;;;3.53;;
3667;SDS011;24099;47.102;15.440;2023-08-17T04:17:31;5.15;;;3.80;;
3667;SDS011;24099;47.102;15.440;2023-08-17T04:19:59;5.78;;;3.80;;
3667;SDS011;24099;47.102;15.440;2023-08-17T04:22:27;6.35;;;4.00;;
3667;SDS011;24099;47.102;15.440;2023-08-17T04:24:55;4.45;;;3.25;;
3667;SDS011;24099;47.102;15.440;2023-08-17T04:27:23;5.03;;;3.58;;
3667;SDS011;24099;47.102;15.440;2023-08-17T04:29:51;5.75;;;3.78;;
3667;SDS011;24099;47.102;15.440;2023-08-17T04:32:21;6.65;;;3.80;;
3667;SDS011;24099;47.102;15.440;2023-08-17T04:34:49;7.90;;;3.92;;
3667;SDS011;24099;47.102;15.440;2023-08-17T04:37:16;5.28;;;3.70;;
3667;SDS011;24099;47.102;15.440;2023-08-17T04:39:44;8.07;;;4.22;;
3667;SDS011;24099;47.102;15.440;2023-08-17T04:42:18;3.72;;;3.28;;
3667;SDS011;24099;47.102;15.440;2023-08-17T04:44:45;12.07;;;3.78;;
3667;SDS011;24099;47.102;15.440;2023-08-17T04:47:13;5.35;;;3.55;;
3667;SDS011;24099;47.102;15.440;2023-08-17T04:49:43;4.32;;;3.13;;
3667;SDS011;24099;47.102;15.440;2023-08-17T04:52:10;6.88;;;3.78;;
3667;SDS011;24099;47.102;15.440;2023-08-17T04:54:38;4.32;;;3.85;;
3667;SDS011;24099;47.102;15.440;2023-08-17T04:57:05;4.43;;;3.53;;
3667;SDS011;24099;47.102;15.440;2023-08-17T04:59:34;6.30;;;3.17;;
3667;SDS011;24099;47.102;15.440;2023-08-17T05:02:02;5.25;;;3.80;;
3667;SDS011;24099;47.102;15.440;2023-08-17T05:04:31;5.95;;;3.97;;
3667;SDS011;24099;47.102;15.440;2023-08-17T05:07:00;4.47;;;3.50;;
3667;SDS011;24099;47.102;15.440;2023-08-17T05:09:29;6.97;;;3.88;;
3667;SDS011;24099;47.102;15.440;2023-08-17T05:11:57;5.38;;;3.70;;
3667;SDS011;24099;47.102;15.440;2023-08-17T05:14:25;5.65;;;4.10;;
3667;SDS011;24099;47.102;15.440;2023-08-17T05:16:53;7.70;;;4.72;;
3667;SDS011;24099;47.102;15.440;2023-08-17T05:19:21;8.65;;;4.30;;
3667;SDS011;24099;47.102;15.440;2023-08-17T05:21:49;7.43;;;4.93;;
3667;SDS011;24099;47.102;15.440;2023-08-17T05:24:20;8.10;;;4.68;;
3667;SDS011;24099;47.102;15.440;2023-08-17T05:26:49;6.47;;;4.45;;
3667;SDS011;24099;47.102;15.440;2023-08-17T05:29:17;7.95;;;4.93;;
3667;SDS011;24099;47.102;15.440;2023-08-17T05:31:45;6.50;;;4.22;;
3667;SDS011;24099;47.102;15.440;2023-08-17T05:34:13;6.47;;;4.28;;
3667;SDS011;24099;47.102;15.440;2023-08-17T05:36:41;10.68;;;4.93;;
3667;SDS011;24099;47.102;15.440;2023-08-17T05:39:09;6.60;;;4.25;;
3667;SDS011;24099;47.102;15.440;2023-08-17T05:41:38;7.82;;;5.10;;
3667;SDS011;24099;47.102;15.440;2023-08-17T05:44:05;7.65;;;5.05;;
3667;SDS011;24099;47.102;15.440;2023-08-17T05:46:33;6.90;;;4.95;;
3667;SDS011;24099;47.102;15.440;2023-08-17T05:49:01;6.88;;;4.93;;
3667;SDS011;24099;47.102;15.440;2023-08-17T05:51:29;8.48;;;4.90;;
3667;SDS011;24099;47.102;15.440;2023-08-17T05:53:56;10.20;;;4.57;;
3667;SDS011;24099;47.102;15.440;2023-08-17T05:56:24;10.13;;;5.47;;
3667;SDS011;24099;47.102;15.440;2023-08-17T05:58:54;11.57;;;5.40;;
3667;SDS011;24099;47.102;15.440;2023-08-17T06:01:22;9.65;;;4.70;;
3667;SDS011;24099;47.102;15.440;2023-08-17T06:03:49;8.27;;;5.20;;
3667;SDS011;24099;47.102;15.440;2023-08-17T06:06:17;14.43;;;5.45;;
3667;SDS011;24099;47.102;15.440;2023-08-17T06:08:44;8.57;;;5.18;;
3667;SDS011;24099;47.102;15.440;2023-08-17T06:11:12;6.97;;;4.88;;
3667;SDS011;24099;47.102;15.440;2023-08-17T06:13:40;8.23;;;5.55;;
3667;SDS011;24099;47.102;15.440;2023-08-17T06:16:09;8.88;;;5.53;;
3667;SDS011;24099;47.102;15.440;2023-08-17T06:18:36;10.95;;;6.18;;
3667;SDS011;24099;47.102;15.440;2023-08-17T06:21:05;8.18;;;5.35;;
3667;SDS011;24099;47.102;15.440;2023-08-17T06:23:32;10.05;;;5.50;;
3667;SDS011;24099;47.102;15.440;2023-08-17T06:26:00;11.73;;;5.47;;
3667;SDS011;24099;47.102;15.440;2023-08-17T06:28:28;10.18;;;5.72;;
3667;SDS011;24099;47.102;15.440;2023-08-17T06:30:56;9.73;;;5.35;;
3667;SDS011;24099;47.102;15.440;2023-08-17T06:33:25;8.95;;;5.30;;
3667;SDS011;24099;47.102;15.440;2023-08-17T06:35:52;9.70;;;5.43;;
3667;SDS011;24099;47.102;15.440;2023-08-17T06:38:20;12.20;;;6.50;;
3667;SDS011;24099;47.102;15.440;2023-08-17T06:40:47;9.43;;;5.78;;
3667;SDS011;24099;47.102;15.440;2023-08-17T06:43:17;10.75;;;5.60;;
3667;SDS011;24099;47.102;15.440;2023-08-17T06:45:45;13.13;;;6.00;;
3667;SDS011;24099;47.102;15.440;2023-08-17T06:48:13;11.13;;;5.30;;
3667;SDS011;24099;47.102;15.440;2023-08-17T06:50:42;10.52;;;5.93;;
3667;SDS011;24099;47.102;15.440;2023-08-17T06:53:09;14.07;;;5.65;;
3667;SDS011;24099;47.102;15.440;2023-08-17T06:55:37;9.98;;;6.55;;
3667;SDS011;24099;47.102;15.440;2023-08-17T06:58:04;11.25;;;6.60;;
3667;SDS011;24099;47.102;15.440;2023-08-17T07:00:32;12.95;;;6.35;;
3667;SDS011;24099;47.102;15.440;2023-08-17T07:03:00;11.88;;;6.55;;
3667;SDS011;24099;47.102;15.440;2023-08-17T07:05:29;11.02;;;6.63;;
3667;SDS011;24099;47.102;15.440;2023-08-17T07:07:58;10.82;;;6.88;;
3667;SDS011;24099;47.102;15.440;2023-08-17T07:10:26;13.38;;;7.15;;
3667;SDS011;24099;47.102;15.440;2023-08-17T07:12:54;14.95;;;7.10;;
3667;SDS011;24099;47.102;15.440;2023-08-17T07:15:21;10.57;;;6.30;;
3667;SDS011;24099;47.102;15.440;2023-08-17T07:17:49;12.68;;;6.60;;
3667;SDS011;24099;47.102;15.440;2023-08-17T07:20:17;14.25;;;7.22;;
3667;SDS011;24099;47.102;15.440;2023-08-17T07:22:44;15.90;;;7.70;;
3667;SDS011;24099;47.102;15.440;2023-08-17T07:25:14;16.02;;;7.28;;
3667;SDS011;24099;47.102;15.440;2023-08-17T07:27:42;13.85;;;7.65;;
3667;SDS011;24099;47.102;15.440;2023-08-17T07:30:10;12.55;;;7.07;;
3667;SDS011;24099;47.102;15.440;2023-08-17T07:32:38;11.38;;;7.25;;
3667;SDS011;24099;47.102;15.440;2023-08-17T07:35:06;11.88;;;7.15;;
3667;SDS011;24099;47.102;15.440;2023-08-17T07:37:33;13.48;;;7.03;;
3667;SDS011;24099;47.102;15.440;2023-08-17T07:40:01;13.20;;;8.27;;
3667;SDS011;24099;47.102;15.440;2023-08-17T07:42:31;13.07;;;8.18;;
3667;SDS011;24099;47.102;15.440;2023-08-17T07:44:59;8.88;;;6.53;;
3667;SDS011;24099;47.102;15.440;2023-08-17T07:47:29;14.00;;;7.38;;
3667;SDS011;24099;47.102;15.440;2023-08-17T07:49:57;12.05;;;7.25;;
3667;SDS011;24099;47.102;15.440;2023-08-17T07:52:24;9.50;;;6.28;;
3667;SDS011;24099;47.102;15.440;2023-08-17T07:54:52;8.93;;;5.55;;
3667;SDS011;24099;47.102;15.440;2023-08-17T07:57:20;8.50;;;5.50;;
3667;SDS011;24099;47.102;15.440;2023-08-17T07:59:49;5.82;;;4.93;;
3667;SDS011;24099;47.102;15.440;2023-08-17T08:02:18;6.45;;;4.13;;
3667;SDS011;24099;47.102;15.440;2023-08-17T08:04:46;4.47;;;3.40;;
3667;SDS011;24099;47.102;15.440;2023-08-17T08:07:14;3.75;;;3.28;;
3667;SDS011;24099;47.102;15.440;2023-08-17T08:09:41;3.70;;;2.88;;
3667;SDS011;24099;47.102;15.440;2023-08-17T08:12:09;3.05;;;2.75;;
3667;SDS011;24099;47.102;15.440;2023-08-17T08:14:36;3.47;;;2.72;;
3667;SDS011;24099;47.102;15.440;2023-08-17T08:17:05;5.03;;;2.63;;
3667;SDS011;24099;47.102;15.440;2023-08-17T08:19:33;3.33;;;2.92;;
3667;SDS011;24099;47.102;15.440;2023-08-17T08:22:01;3.58;;;2.88;;
3667;SDS011;24099;47.102;15.440;2023-08-17T08:24:28;3.55;;;2.80;;
3667;SDS011;24099;47.102;15.440;2023-08-17T08:26:59;3.80;;;2.80;;
3667;SDS011;24099;47.102;15.440;2023-08-17T08:29:26;2.78;;;2.45;;
3667;SDS011;24099;47.102;15.440;2023-08-17T08:31:54;2.83;;;2.63;;
3667;SDS011;24099;47.102;15.440;2023-08-17T08:34:23;3.15;;;2.85;;
3667;SDS011;24099;47.102;15.440;2023-08-17T08:36:51;3.13;;;2.58;;
3667;SDS011;24099;47.102;15.440;2023-08-17T08:39:19;4.20;;;2.90;;
3667;SDS011;24099;47.102;15.440;2023-08-17T08:41:46;4.88;;;2.78;;
3667;SDS011;24099;47.102;15.440;2023-08-17T08:44:14;2.75;;;2.55;;
3667;SDS011;24099;47.102;15.440;2023-08-17T08:46:42;2.95;;;2.65;;
3667;SDS011;24099;47.102;15.440;2023-08-17T08:49:11;6.07;;;2.70;;
3667;SDS011;24099;47.102;15.440;2023-08-17T08:51:46;3.67;;;2.53;;
3667;SDS011;24099;47.102;15.440;2023-08-17T08:54:18;4.13;;;2.72;;
3667;SDS011;24099;47.102;15.440;2023-08-17T08:56:49;4.65;;;2.60;;
3667;SDS011;24099;47.102;15.440;2023-08-17T08:59:21;4.53;;;2.50;;
3667;SDS011;24099;47.102;15.440;2023-08-17T09:01:52;7.47;;;2.53;;
3667;SDS011;24099;47.102;15.440;2023-08-17T09:04:20;4.20;;;2.75;;
3667;SDS011;24099;47.102;15.440;2023-08-17T09:06:50;5.07;;;2.55;;
3667;SDS011;24099;47.102;15.440;2023-08-17T09:09:19;3.67;;;2.80;;
3667;SDS011;24099;47.102;15.440;2023-08-17T09:11:47;3.40;;;2.55;;
3667;SDS011;24099;47.102;15.440;2023-08-17T09:14:15;3.92;;;2.50;;
3667;SDS011;24099;47.102;15.440;2023-08-17T09:16:43;3.75;;;2.78;;
3667;SDS011;24099;47.102;15.440;2023-08-17T09:19:10;3.90;;;3.10;;
3667;SDS011;24099;47.102;15.440;2023-08-17T09:21:38;4.65;;;2.80;;
3667;SDS011;24099;47.102;15.440;2023-08-17T09:24:14;5.93;;;2.65;;
3667;SDS011;24099;47.102;15.440;2023-08-17T09:26:42;3.53;;;2.30;;
3667;SDS011;24099;47.102;15.440;2023-08-17T09:29:18;3.72;;;2.38;;
3667;SDS011;24099;47.102;15.440;2023-08-17T09:31:46;2.65;;;2.17;;
3667;SDS011;24099;47.102;15.440;2023-08-17T09:34:14;3.65;;;2.30;;
3667;SDS011;24099;47.102;15.440;2023-08-17T09:36:42;7.72;;;2.70;;
3667;SDS011;24099;47.102;15.440;2023-08-17T09:39:09;3.30;;;2.70;;
3667;SDS011;24099;47.102;15.440;2023-08-17T09:41:41;5.65;;;3.63;;
3667;SDS011;24099;47.102;15.440;2023-08-17T09:44:09;3.28;;;2.75;;
3667;SDS011;24099;47.102;15.440;2023-08-17T09:46:36;5.65;;;2.40;;
3667;SDS011;24099;47.102;15.440;2023-08-17T09:49:03;2.72;;;2.50;;
3667;SDS011;24099;47.102;15.440;2023-08-17T09:51:31;2.53;;;2.33;;
3667;SDS011;24099;47.102;15.440;2023-08-17T09:53:58;3.08;;;2.53;;
3667;SDS011;24099;47.102;15.440;2023-08-17T09:56:26;3.10;;;2.45;;
3667;SDS011;24099;47.102;15.440;2023-08-17T09:58:55;5.50;;;2.72;;
3667;SDS011;24099;47.102;15.440;2023-08-17T10:01:22;6.30;;;2.35;;
3667;SDS011;24099;47.102;15.440;2023-08-17T10:03:50;3.05;;;2.63;;
3667;SDS011;24099;47.102;15.440;2023-08-17T10:06:20;3.40;;;2.70;;
3667;SDS011;24099;47.102;15.440;2023-08-17T10:08:49;2.63;;;2.42;;
3667;SDS011;24099;47.102;15.440;2023-08-17T10:11:18;5.50;;;2.47;;
3667;SDS011;24099;47.102;15.440;2023-08-17T10:13:48;5.30;;;2.97;;
3667;SDS011;24099;47.102;15.440;2023-08-17T10:16:19;3.85;;;2.75;;
3667;SDS011;24099;47.102;15.440;2023-08-17T10:18:50;3.50;;;2.72;;
3667;SDS011;24099;47.102;15.440;2023-08-17T10:21:23;5.25;;;2.83;;
3667;SDS011;24099;47.102;15.440;2023-08-17T10:23:52;3.40;;;2.70;;
3667;SDS011;24099;47.102;15.440;2023-08-17T10:26:20;4.22;;;2.92;;
3667;SDS011;24099;47.102;15.440;2023-08-17T10:28:47;4.43;;;3.05;;
3667;SDS011;24099;47.102;15.440;2023-08-17T10:31:15;3.03;;;2.38;;
3667;SDS011;24099;47.102;15.440;2023-08-17T10:33:44;5.50;;;2.65;;
3667;SDS011;24099;47.102;15.440;2023-08-17T10:36:12;2.42;;;2.20;;
3667;SDS011;24099;47.102;15.440;2023-08-17T10:38:40;3.70;;;2.50;;
3667;SDS011;24099;47.102;15.440;2023-08-17T10:41:08;3.40;;;2.50;;
3667;SDS011;24099;47.102;15.440;2023-08-17T10:46:18;3.35;;;2.72;;
3667;SDS011;24099;47.102;15.440;2023-08-17T10:48:47;3.10;;;2.80;;
3667;SDS011;24099;47.102;15.440;2023-08-17T10:51:14;3.03;;;2.55;;
3667;SDS011;24099;47.102;15.440;2023-08-17T10:53:42;5.80;;;2.58;;
3667;SDS011;24099;47.102;15.440;2023-08-17T10:56:11;4.95;;;2.30;;
3667;SDS011;24099;47.102;15.440;2023-08-17T10:58:38;3.03;;;2.60;;
3667;SDS011;24099;47.102;15.440;2023-08-17T11:01:06;3.22;;;2.38;;
3667;SDS011;24099;47.102;15.440;2023-08-17T11:03:33;3.33;;;2.70;;
3667;SDS011;24099;47.102;15.440;2023-08-17T11:06:15;4.53;;;2.35;;
3667;SDS011;24099;47.102;15.440;2023-08-17T11:08:53;7.43;;;2.67;;
3667;SDS011;24099;47.102;15.440;2023-08-17T11:11:21;3.13;;;2.50;;
3667;SDS011;24099;47.102;15.440;2023-08-17T11:13:49;2.97;;;2.10;;
3667;SDS011;24099;47.102;15.440;2023-08-17T11:16:16;2.97;;;2.60;;
3667;SDS011;24099;47.102;15.440;2023-08-17T11:18:45;3.40;;;1.90;;
3667;SDS011;24099;47.102;15.440;2023-08-17T11:21:15;2.38;;;2.15;;
3667;SDS011;24099;47.102;15.440;2023-08-17T11:23:42;6.50;;;2.65;;
3667;SDS011;24099;47.102;15.440;2023-08-17T11:26:10;3.85;;;2.47;;
3667;SDS011;24099;47.102;15.440;2023-08-17T11:28:37;2.85;;;2.50;;
3667;SDS011;24099;47.102;15.440;2023-08-17T11:31:06;7.85;;;2.78;;
3667;SDS011;24099;47.102;15.440;2023-08-17T11:33:34;4.05;;;2.58;;
3667;SDS011;24099;47.102;15.440;2023-08-17T11:36:03;4.22;;;2.50;;
3667;SDS011;24099;47.102;15.440;2023-08-17T11:38:33;5.35;;;2.70;;
3667;SDS011;24099;47.102;15.440;2023-08-17T11:41:01;3.30;;;2.17;;
3667;SDS011;24099;47.102;15.440;2023-08-17T11:43:29;3.60;;;2.58;;
3667;SDS011;24099;47.102;15.440;2023-08-17T11:45:57;3.45;;;2.25;;
3667;SDS011;24099;47.102;15.440;2023-08-17T11:48:24;9.77;;;2.30;;
3667;SDS011;24099;47.102;15.440;2023-08-17T11:50:52;3.00;;;2.50;;
3667;SDS011;24099;47.102;15.440;2023-08-17T11:53:20;4.35;;;2.60;;
3667;SDS011;24099;47.102;15.440;2023-08-17T11:55:49;2.65;;;2.42;;
3667;SDS011;24099;47.102;15.440;2023-08-17T11:58:16;3.80;;;2.35;;
3667;SDS011;24099;47.102;15.440;2023-08-17T12:00:44;2.63;;;1.80;;
3667;SDS011;24099;47.102;15.440;2023-08-17T12:03:14;2.50;;;2.10;;
3667;SDS011;24099;47.102;15.440;2023-08-17T12:05:43;2.72;;;1.85;;
3667;SDS011;24099;47.102;15.440;2023-08-17T12:08:12;2.40;;;2.20;;
3667;SDS011;24099;47.102;15.440;2023-08-17T12:10:40;2.00;;;1.77;;
3667;SDS011;24099;47.102;15.440;2023-08-17T12:13:12;3.17;;;2.10;;
3667;SDS011;24099;47.102;15.440;2023-08-17T12:15:40;2.85;;;2.05;;
3667;SDS011;24099;47.102;15.440;2023-08-17T12:18:07;2.95;;;2.05;;
3667;SDS011;24099;47.102;15.440;2023-08-17T12:20:34;2.05;;;1.88;;
3667;SDS011;24099;47.102;15.440;2023-08-17T12:23:02;5.10;;;2.08;;
3667;SDS011;24099;47.102;15.440;2023-08-17T12:25:29;2.17;;;2.00;;
3667;SDS011;24099;47.102;15.440;2023-08-17T12:27:57;3.05;;;1.90;;
3667;SDS011;24099;47.102;15.440;2023-08-17T12:30:27;2.45;;;1.90;;
3667;SDS011;24099;47.102;15.440;2023-08-17T12:32:56;2.55;;;2.00;;
3667;SDS011;24099;47.102;15.440;2023-08-17T12:35:24;2.10;;;1.90;;
3667;SDS011;24099;47.102;15.440;2023-08-17T12:37:52;2.00;;;1.90;;
3667;SDS011;24099;47.102;15.440;2023-08-17T12:40:19;2.10;;;1.92;;
3667;SDS011;24099;47.102;15.440;2023-08-17T12:42:47;2.70;;;2.33;;
3667;SDS011;24099;47.102;15.440;2023-08-17T12:45:15;3.20;;;2.15;;
3667;SDS011;24099;47.102;15.440;2023-08-17T12:47:43;3.20;;;2.13;;
3667;SDS011;24099;47.102;15.440;2023-08-17T12:50:11;3.15;;;1.80;;
3667;SDS011;24099;47.102;15.440;2023-08-17T12:52:38;3.67;;;2.20;;
3667;SDS011;24099;47.102;15.440;2023-08-17T12:55:05;1.85;;;1.75;;
3667;SDS011;24099;47.102;15.440;2023-08-17T12:57:33;3.10;;;1.80;;
3667;SDS011;24099;47.102;15.440;2023-08-17T13:00:00;2.30;;;2.10;;
3667;SDS011;24099;47.102;15.440;2023-08-17T13:02:28;2.75;;;2.10;;
3667;SDS011;24099;47.102;15.440;2023-08-17T13:04:58;5.95;;;2.05;;
3667;SDS011;24099;47.102;15.440;2023-08-17T13:07:25;1.90;;;1.63;;
3667;SDS011;24099;47.102;15.440;2023-08-17T13:09:53;4.00;;;2.10;;
3667;SDS011;24099;47.102;15.440;2023-08-17T13:12:20;1.92;;;1.60;;
3667;SDS011;24099;47.102;15.440;2023-08-17T13:14:47;2.13;;;1.67;;
3667;SDS011;24099;47.102;15.440;2023-08-17T13:17:15;3.10;;;1.90;;
3667;SDS011;24099;47.102;15.440;2023-08-17T13:19:42;3.47;;;2.13;;
3667;SDS011;24099;47.102;15.440;2023-08-17T13:22:11;3.75;;;1.63;;
3667;SDS011;24099;47.102;15.440;2023-08-17T13:24:38;2.58;;;1.67;;
3667;SDS011;24099;47.102;15.440;2023-08-17T13:27:06;3.13;;;2.08;;
3667;SDS011;24099;47.102;15.440;2023-08-17T13:29:33;3.17;;;1.70;;
3667;SDS011;24099;47.102;15.440;2023-08-17T13:32:03;2.10;;;1.90;;
3667;SDS011;24099;47.102;15.440;2023-08-17T13:34:31;2.90;;;1.67;;
3667;SDS011;24099;47.102;15.440;2023-08-17T13:36:58;2.25;;;1.63;;
3667;SDS011;24099;47.102;15.440;2023-08-17T13:39:29;3.17;;;1.67;;
3667;SDS011;24099;47.102;15.440;2023-08-17T13:41:57;2.38;;;1.77;;
3667;SDS011;24099;47.102;15.440;2023-08-17T13:44:24;1.83;;;1.48;;
3667;SDS011;24099;47.102;15.440;2023-08-17T13:46:51;3.03;;;1.80;;
3667;SDS011;24099;47.102;15.440;2023-08-17T13:49:19;2.28;;;1.45;;
3667;SDS011;24099;47.102;15.440;2023-08-17T13:51:46;7.13;;;1.73;;
3667;SDS011;24099;47.102;15.440;2023-08-17T13:54:13;2.40;;;1.90;;
3667;SDS011;24099;47.102;15.440;2023-08-17T13:56:42;2.75;;;1.80;;
3667;SDS011;24099;47.102;15.440;2023-08-17T13:59:09;2.05;;;1.80;;
3667;SDS011;24099;47.102;15.440;2023-08-17T14:01:36;2.30;;;1.90;;
3667;SDS011;24099;47.102;15.440;2023-08-17T14:04:05;2.22;;;1.73;;
3667;SDS011;24099;47.102;15.440;2023-08-17T14:06:36;1.95;;;1.65;;
3667;SDS011;24099;47.102;15.440;2023-08-17T14:09:04;4.03;;;1.75;;
3667;SDS011;24099;47.102;15.440;2023-08-17T14:11:31;1.98;;;1.75;;
3667;SDS011;24099;47.102;15.440;2023-08-17T14:14:00;4.78;;;2.10;;
3667;SDS011;24099;47.102;15.440;2023-08-17T14:16:27;2.45;;;1.70;;
3667;SDS011;24099;47.102;15.440;2023-08-17T14:18:54;1.67;;;1.52;;
3667;SDS011;24099;47.102;15.440;2023-08-17T14:21:22;2.75;;;1.75;;
3667;SDS011;24099;47.102;15.440;2023-08-17T14:23:49;1.92;;;1.80;;
3667;SDS011;24099;47.102;15.440;2023-08-17T14:26:16;3.05;;;1.73;;
3667;SDS011;24099;47.102;15.440;2023-08-17T14:28:43;2.17;;;1.80;;
3667;SDS011;24099;47.102;15.440;2023-08-17T14:31:12;4.38;;;1.75;;
3667;SDS011;24099;47.102;15.440;2023-08-17T14:33:42;4.63;;;1.90;;
3667;SDS011;24099;47.102;15.440;2023-08-17T14:36:11;2.03;;;1.70;;
3667;SDS011;24099;47.102;15.440;2023-08-17T14:38:39;1.67;;;1.58;;
3667;SDS011;24099;47.102;15.440;2023-08-17T14:41:06;4.22;;;1.50;;
3667;SDS011;24099;47.102;15.440;2023-08-17T14:43:34;2.38;;;1.80;;
3667;SDS011;24099;47.102;15.440;2023-08-17T14:46:01;3.08;;;1.92;;
3667;SDS011;24099;47.102;15.440;2023-08-17T14:48:30;1.60;;;1.50;;
3667;SDS011;24099;47.102;15.440;2023-08-17T14:50:57;3.00;;;1.70;;
3667;SDS011;24099;47.102;15.440;2023-08-17T14:53:25;1.75;;;1.65;;
3667;SDS011;24099;47.102;15.440;2023-08-17T14:55:52;2.28;;;2.08;;
3667;SDS011;24099;47.102;15.440;2023-08-17T14:58:19;2.35;;;1.95;;